Time;durP1;ratioP1;P1;durP2;ratioP2;P2;SDS_P1;SDS_P2;PMS_P1;PMS_P2;Temp;Humidity;BMP_temperature;BMP_pressure;BME280_temperature;BME280_humidity;BME280_pressure;Samples;Min_cycle;Max_cycle;Signal;HPM_P1;HPM_P2
2024/02/25 00:01:33;;;;;;;;;;;;;;;;;;5082571;28;20474;-73
2024/02/25 00:04:00;;;;;;;;;;;;;;;;;;5090335;28;19928;-74
2024/02/25 00:06:27;;;;;;;;;;;;;;;;;;5089972;28;19928;-75
2024/02/25 00:08:54;;;;;;;;;;;;;;;;;;5094860;28;20462;-73
2024/02/25 00:11:21;;;;;;;;;;;;;;;;;;5090497;28;20010;-75
2024/02/25 00:13:48;;;;;;;;;;;;;;;;;;5090772;28;20007;-73
2024/02/25 00:16:16;;;;;;;;;;;;;;;;;;5091067;28;19987;-73
2024/02/25 00:18:42;;;;;;;;;;;;;;;;;;5091419;28;19939;-73
2024/02/25 00:21:10;;;;;;;;;;;;;;;;;;5091093;28;20019;-74
2024/02/25 00:23:37;;;;;;;;;;;;;;;;;;5093023;28;20338;-74
2024/02/25 00:26:04;;;;;;;;;;;;;;;;;;5091539;28;19956;-73
2024/02/25 00:28:31;;;;;;;;;;;;;;;;;;5090641;28;19928;-74
2024/02/25 00:30:58;;;;;;;;;;;;;;;;;;5086418;28;19928;-73
2024/02/25 00:33:25;;;;;;;;;;;;;;;;;;5084666;28;19934;-73
2024/02/25 00:35:52;;;;;;;;;;;;;;;;;;5082060;28;20371;-73
2024/02/25 00:38:19;;;;;;;;;;;;;;;;;;5091681;28;19928;-74
2024/02/25 00:40:46;;;;;;;;;;;;;;;;;;5081164;28;19932;-74
2024/02/25 00:43:13;;;;;;;;;;;;;;;;;;5084830;28;19927;-75
2024/02/25 00:45:40;;;;;;;;;;;;;;;;;;5083298;28;19929;-74
2024/02/25 00:48:07;;;;;;;;;;;;;;;;;;5083831;28;19979;-74
2024/02/25 00:50:34;;;;;;;;;;;;;;;;;;5084845;28;19981;-74
2024/02/25 00:53:01;;;;;;;;;;;;;;;;;;5082441;28;20383;-74
2024/02/25 00:55:29;;;;;;;;;;;;;;;;;;5082630;28;19959;-73
2024/02/25 00:57:56;;;;;;;;;;;;;;;;;;5082607;28;19928;-74
2024/02/25 01:00:23;;;;;;;;;;;;;;;;;;5084173;28;19967;-74
2024/02/25 01:02:50;;;;;;;;;;;;;;;;;;5082047;28;19974;-74
2024/02/25 01:05:17;;;;;;;;;;;;;;;;;;5084094;28;19928;-73
2024/02/25 01:07:44;;;;;;;;;;;;;;;;;;5082884;28;19992;-74
2024/02/25 01:10:11;;;;;;;;;;;;;;;;;;5086479;28;19932;-72
2024/02/25 01:12:38;;;;;;;;;;;;;;;;;;5083277;28;19963;-73
2024/02/25 01:15:06;;;;;;;;;;;;;;;;;;5084367;28;19974;-73
2024/02/25 01:17:33;;;;;;;;;;;;;;;;;;5082249;28;20001;-76
2024/02/25 01:20:00;;;;;;;;;;;;;;;;;;5082467;28;20359;-74
2024/02/25 01:22:27;;;;;;;;;;;;;;;;;;5084274;28;19928;-75
2024/02/25 01:24:54;;;;;;;;;;;;;;;;;;5084371;28;20364;-74
2024/02/25 01:27:21;;;;;;;;;;;;;;;;;;5078697;28;19936;-75
2024/02/25 01:29:48;;;;;;;;;;;;;;;;;;5078763;28;20023;-73
2024/02/25 01:32:17;;;;;;;;;;;;;;;;;;5088000;28;20448;-72
2024/02/25 01:34:44;;;;;;;;;;;;;;;;;;5089550;28;19971;-74
2024/02/25 01:37:11;;;;;;;;;;;;;;;;;;5083259;28;20836;-74
2024/02/25 01:39:38;;;;;;;;;;;;;;;;;;5081173;28;19939;-74
2024/02/25 01:42:05;;;;;;;;;;;;;;;;;;5079450;28;20355;-74
2024/02/25 01:44:33;;;;;;;;;;;;;;;;;;5078009;28;19932;-73
2024/02/25 01:47:01;;;;;;;;;;;;;;;;;;5075181;28;19935;-74
2024/02/25 01:49:28;;;;;;;;;;;;;;;;;;5076769;28;19929;-74
2024/02/25 01:51:55;;;;;;;;;;;;;;;;;;5081451;28;20031;-73
2024/02/25 01:54:22;;;;;;;;;;;;;;;;;;5078024;28;20439;-74
2024/02/25 01:56:49;;;;;;;;;;;;;;;;;;5083023;28;19935;-73
2024/02/25 01:59:16;;;;;;;;;;;;;;;;;;5085010;28;19982;-70
2024/02/25 02:01:43;;;;;;;;;;;;;;;;;;5084762;28;20023;-85
2024/02/25 02:04:10;;;;;;;;;;;;;;;;;;5086861;28;20022;-72
2024/02/25 02:06:37;;;;;;;;;;;;;;;;;;5087298;28;20002;-73
2024/02/25 02:09:05;;;;;;;;;;;;;;;;;;5085858;28;19928;-74
2024/02/25 02:11:32;;;;;;;;;;;;;;;;;;5095369;28;20475;-72
2024/02/25 02:13:59;;;;;;;;;;;;;;;;;;5088653;28;19927;-73
2024/02/25 02:16:26;;;;;;;;;;;;;;;;;;5086833;28;19977;-73
2024/02/25 02:18:53;;;;;;;;;;;;;;;;;;5089807;28;19977;-73
2024/02/25 02:21:20;;;;;;;;;;;;;;;;;;5087871;28;20345;-74
2024/02/25 02:23:47;;;;;;;;;;;;;;;;;;5084413;28;20368;-73
2024/02/25 02:26:14;;;;;;;;;;;;;;;;;;5084512;28;19932;-74
2024/02/25 02:28:41;;;;;;;;;;;;;;;;;;5090939;28;19927;-74
2024/02/25 02:31:08;;;;;;;;;;;;;;;;;;5087936;28;19932;-74
2024/02/25 02:33:38;;;;;;;;;;;;;;;;;;5087563;28;19971;-73
2024/02/25 02:36:05;;;;;;;;;;;;;;;;;;5088847;28;19928;-73
2024/02/25 02:38:32;;;;;;;;;;;;;;;;;;5087158;28;19963;-74
2024/02/25 02:40:59;;;;;;;;;;;;;;;;;;5093352;28;20454;-73
2024/02/25 02:43:26;;;;;;;;;;;;;;;;;;5086778;28;20010;-73
2024/02/25 02:45:55;;;;;;;;;;;;;;;;;;5085641;28;19928;-74
2024/02/25 02:48:22;;;;;;;;;;;;;;;;;;5086895;28;19935;-74
2024/02/25 02:50:49;;;;;;;;;;;;;;;;;;5087196;28;20019;-73
2024/02/25 02:53:16;;;;;;;;;;;;;;;;;;5084497;28;19934;-73
2024/02/25 02:55:43;;;;;;;;;;;;;;;;;;5086987;28;20026;-74
2024/02/25 02:58:10;;;;;;;;;;;;;;;;;;5086013;28;20022;-73
2024/02/25 03:00:37;;;;;;;;;;;;;;;;;;5086053;28;20040;-74
2024/02/25 03:03:04;;;;;;;;;;;;;;;;;;5087224;28;20363;-75
2024/02/25 03:05:31;;;;;;;;;;;;;;;;;;5088636;28;20462;-73
2024/02/25 03:07:58;;;;;;;;;;;;;;;;;;5083046;28;20299;-74
2024/02/25 03:10:25;;;;;;;;;;;;;;;;;;5085889;28;19938;-73
2024/02/25 03:12:52;;;;;;;;;;;;;;;;;;5088239;28;19942;-75
2024/02/25 03:15:19;;;;;;;;;;;;;;;;;;5088172;28;19934;-74
2024/02/25 03:17:46;;;;;;;;;;;;;;;;;;5088232;28;20046;-73
2024/02/25 03:20:13;;;;;;;;;;;;;;;;;;5083753;28;19987;-73
2024/02/25 03:22:40;;;;;;;;;;;;;;;;;;5086572;28;19974;-73
2024/02/25 03:25:08;;;;;;;;;;;;;;;;;;5087932;28;19928;-74
2024/02/25 03:27:36;;;;;;;;;;;;;;;;;;5086813;28;19990;-73
2024/02/25 03:30:03;;;;;;;;;;;;;;;;;;5075353;28;20369;-73
2024/02/25 03:32:30;;;;;;;;;;;;;;;;;;5087164;28;20017;-73
2024/02/25 03:34:57;;;;;;;;;;;;;;;;;;5088184;28;19928;-73
2024/02/25 03:37:24;;;;;;;;;;;;;;;;;;5088291;28;20345;-74
2024/02/25 03:39:51;;;;;;;;;;;;;;;;;;5091783;28;19928;-74
2024/02/25 03:42:18;;;;;;;;;;;;;;;;;;5090397;28;20378;-74
2024/02/25 03:44:45;;;;;;;;;;;;;;;;;;5091706;28;20046;-71
2024/02/25 03:47:12;;;;;;;;;;;;;;;;;;5081608;28;20454;-73
2024/02/25 03:49:40;;;;;;;;;;;;;;;;;;5091664;28;19927;-74
2024/02/25 03:52:07;;;;;;;;;;;;;;;;;;5090802;28;20287;-74
2024/02/25 03:54:34;;;;;;;;;;;;;;;;;;5091033;28;20023;-73
2024/02/25 03:57:01;;;;;;;;;;;;;;;;;;5091563;28;19981;-72
2024/02/25 03:59:28;;;;;;;;;;;;;;;;;;5093372;28;20052;-74
2024/02/25 04:01:55;;;;;;;;;;;;;;;;;;5089882;28;20304;-74
2024/02/25 04:04:22;;;;;;;;;;;;;;;;;;5094582;28;19957;-74
2024/02/25 04:06:49;;;;;;;;;;;;;;;;;;5091430;28;20594;-74
2024/02/25 04:09:16;;;;;;;;;;;;;;;;;;5091334;28;20444;-74
2024/02/25 04:11:43;;;;;;;;;;;;;;;;;;5091100;28;19928;-75
2024/02/25 04:14:10;;;;;;;;;;;;;;;;;;5091181;28;19975;-73
2024/02/25 04:16:37;;;;;;;;;;;;;;;;;;5091227;28;19928;-77
2024/02/25 04:19:04;;;;;;;;;;;;;;;;;;5090811;28;19928;-75
2024/02/25 04:21:31;;;;;;;;;;;;;;;;;;5091197;28;19973;-73
2024/02/25 04:24:01;;;;;;;;;;;;;;;;;;5090491;28;20019;-73
2024/02/25 04:26:28;;;;;;;;;;;;;;;;;;5090868;28;20351;-73
2024/02/25 04:28:55;;;;;;;;;;;;;;;;;;5090992;28;20026;-74
2024/02/25 04:31:22;;;;;;;;;;;;;;;;;;5090734;28;19928;-75
2024/02/25 04:33:49;;;;;;;;;;;;;;;;;;5076037;28;19928;-73
2024/02/25 04:36:17;;;;;;;;;;;;;;;;;;5090230;28;20355;-74
2024/02/25 04:38:46;;;;;;;;;;;;;;;;;;5084536;28;20413;-74
2024/02/25 04:41:13;;;;;;;;;;;;;;;;;;5090736;28;19974;-73
2024/02/25 04:43:40;;;;;;;;;;;;;;;;;;5088989;28;20027;-74
2024/02/25 04:46:07;;;;;;;;;;;;;;;;;;5088861;28;19928;-74
2024/02/25 04:48:34;;;;;;;;;;;;;;;;;;5090338;28;20049;-73
2024/02/25 04:51:01;;;;;;;;;;;;;;;;;;5090453;28;19970;-75
2024/02/25 04:53:28;;;;;;;;;;;;;;;;;;5090228;28;19935;-74
2024/02/25 04:55:55;;;;;;;;;;;;;;;;;;5089251;28;19928;-74
2024/02/25 04:58:22;;;;;;;;;;;;;;;;;;5090195;28;19928;-74
2024/02/25 05:00:49;;;;;;;;;;;;;;;;;;5088742;28;19927;-73
2024/02/25 05:03:17;;;;;;;;;;;;;;;;;;5090655;28;19959;-72
2024/02/25 05:05:44;;;;;;;;;;;;;;;;;;5089378;28;20803;-73
2024/02/25 05:08:11;;;;;;;;;;;;;;;;;;5090629;28;19928;-74
2024/02/25 05:10:38;;;;;;;;;;;;;;;;;;5089672;28;20019;-73
2024/02/25 05:13:05;;;;;;;;;;;;;;;;;;5084547;28;20022;-75
2024/02/25 05:15:32;;;;;;;;;;;;;;;;;;5088243;28;19936;-74
2024/02/25 05:17:59;;;;;;;;;;;;;;;;;;5089593;28;19993;-73
2024/02/25 05:20:26;;;;;;;;;;;;;;;;;;5087202;28;20462;-73
2024/02/25 05:22:53;;;;;;;;;;;;;;;;;;5090208;28;19928;-73
2024/02/25 05:25:20;;;;;;;;;;;;;;;;;;5089448;28;20023;-73
2024/02/25 05:27:47;;;;;;;;;;;;;;;;;;5073680;28;19966;-73
2024/02/25 05:30:15;;;;;;;;;;;;;;;;;;5090032;28;20030;-72
2024/02/25 05:32:43;;;;;;;;;;;;;;;;;;5090557;28;19934;-72
2024/02/25 05:35:10;;;;;;;;;;;;;;;;;;5089904;28;19928;-73
2024/02/25 05:37:37;;;;;;;;;;;;;;;;;;5089775;28;19935;-73
2024/02/25 05:40:05;;;;;;;;;;;;;;;;;;5092087;28;20015;-72
2024/02/25 05:42:35;;;;;;;;;;;;;;;;;;5088185;28;19973;-73
2024/02/25 05:45:02;;;;;;;;;;;;;;;;;;5088591;28;19934;-73
2024/02/25 05:47:29;;;;;;;;;;;;;;;;;;5085984;28;19928;-73
2024/02/25 05:49:57;;;;;;;;;;;;;;;;;;5073654;28;20011;-73
2024/02/25 05:52:24;;;;;;;;;;;;;;;;;;5089504;28;20283;-73
2024/02/25 05:54:51;;;;;;;;;;;;;;;;;;5087259;28;19939;-74
2024/02/25 05:57:18;;;;;;;;;;;;;;;;;;5089166;28;20015;-75
2024/02/25 05:59:46;;;;;;;;;;;;;;;;;;5088497;28;19928;-73
2024/02/25 06:02:13;;;;;;;;;;;;;;;;;;5085473;28;19977;-73
2024/02/25 06:04:40;;;;;;;;;;;;;;;;;;5086872;28;19974;-72
2024/02/25 06:07:07;;;;;;;;;;;;;;;;;;5090935;28;19932;-79
2024/02/25 06:09:34;;;;;;;;;;;;;;;;;;5088516;28;19971;-78
2024/02/25 06:12:01;;;;;;;;;;;;;;;;;;5089213;28;20410;-77
2024/02/25 06:14:28;;;;;;;;;;;;;;;;;;5089663;28;20430;-76
2024/02/25 06:16:55;;;;;;;;;;;;;;;;;;5088212;28;19928;-78
2024/02/25 06:19:22;;;;;;;;;;;;;;;;;;5089340;28;20047;-74
2024/02/25 06:21:49;;;;;;;;;;;;;;;;;;5089069;28;20387;-73
2024/02/25 06:24:17;;;;;;;;;;;;;;;;;;5088460;28;19935;-72
2024/02/25 06:26:44;;;;;;;;;;;;;;;;;;5087272;28;19924;-73
2024/02/25 06:29:11;;;;;;;;;;;;;;;;;;5073457;28;20299;-73
2024/02/25 06:31:38;;;;;;;;;;;;;;;;;;5087123;28;19928;-74
2024/02/25 06:34:05;;;;;;;;;;;;;;;;;;5088350;28;19928;-73
2024/02/25 06:36:32;;;;;;;;;;;;;;;;;;5086974;28;20525;-75
2024/02/25 06:38:59;;;;;;;;;;;;;;;;;;5089391;28;20013;-73
2024/02/25 06:41:26;;;;;;;;;;;;;;;;;;5088274;28;20060;-74
2024/02/25 06:43:54;;;;;;;;;;;;;;;;;;5088632;28;20454;-74
2024/02/25 06:46:21;;;;;;;;;;;;;;;;;;5086940;28;20042;-73
2024/02/25 06:48:48;;;;;;;;;;;;;;;;;;5084500;28;20030;-75
2024/02/25 06:51:15;;;;;;;;;;;;;;;;;;5087845;28;19928;-74
2024/02/25 06:53:42;;;;;;;;;;;;;;;;;;5088816;28;19994;-73
2024/02/25 06:56:09;;;;;;;;;;;;;;;;;;5089363;28;19936;-74
2024/02/25 06:58:36;;;;;;;;;;;;;;;;;;5090102;28;19971;-74
2024/02/25 07:01:03;;;;;;;;;;;;;;;;;;5081354;28;19927;-72
2024/02/25 07:03:30;;;;;;;;;;;;;;;;;;5088245;28;19964;-73
2024/02/25 07:05:57;;;;;;;;;;;;;;;;;;5088277;28;19973;-75
2024/02/25 07:08:24;;;;;;;;;;;;;;;;;;5085907;28;20353;-73
2024/02/25 07:10:52;;;;;;;;;;;;;;;;;;5076857;28;20011;-74
2024/02/25 07:13:19;;;;;;;;;;;;;;;;;;5092820;28;20690;-73
2024/02/25 07:15:46;;;;;;;;;;;;;;;;;;5091639;28;19935;-73
2024/02/25 07:18:14;;;;;;;;;;;;;;;;;;5091649;28;19934;-72
2024/02/25 07:20:41;;;;;;;;;;;;;;;;;;5091952;28;19983;-74
2024/02/25 07:23:08;;;;;;;;;;;;;;;;;;5092174;28;20030;-72
2024/02/25 07:25:35;;;;;;;;;;;;;;;;;;5090178;28;19935;-71
2024/02/25 07:28:02;;;;;;;;;;;;;;;;;;5090626;28;19928;-87
2024/02/25 07:30:29;;;;;;;;;;;;;;;;;;5097231;28;19970;-89
2024/02/25 07:32:56;;;;;;;;;;;;;;;;;;5100755;28;19928;-90
2024/02/25 07:35:23;;;;;;;;;;;;;;;;;;5111715;28;19920;-91
2024/02/25 07:37:50;;;;;;;;;;;;;;;;;;5109221;28;19924;-90
2024/02/25 07:40:17;;;;;;;;;;;;;;;;;;5098315;28;19931;-89
2024/02/25 07:42:44;;;;;;;;;;;;;;;;;;5096126;28;20018;-91
2024/02/25 07:45:11;;;;;;;;;;;;;;;;;;5096700;28;20007;-90
2024/02/25 07:47:39;;;;;;;;;;;;;;;;;;5096200;28;20335;-91
2024/02/25 07:50:06;;;;;;;;;;;;;;;;;;5095255;28;20046;-90
2024/02/25 07:52:33;;;;;;;;;;;;;;;;;;5095487;28;20007;-90
2024/02/25 07:55:00;;;;;;;;;;;;;;;;;;5092750;28;19973;-72
2024/02/25 07:57:27;;;;;;;;;;;;;;;;;;5089912;28;19932;-74
2024/02/25 07:59:54;;;;;;;;;;;;;;;;;;5091334;28;19928;-73
2024/02/25 08:02:22;;;;;;;;;;;;;;;;;;5091740;28;19939;-73
2024/02/25 08:04:49;;;;;;;;;;;;;;;;;;5090551;28;19928;-73
2024/02/25 08:07:16;;;;;;;;;;;;;;;;;;5091559;28;19928;-72
2024/02/25 08:09:43;;;;;;;;;;;;;;;;;;5089762;28;19985;-73
2024/02/25 08:12:10;;;;;;;;;;;;;;;;;;5091053;28;20027;-74
2024/02/25 08:14:37;;;;;;;;;;;;;;;;;;5090610;28;19928;-74
2024/02/25 08:17:04;;;;;;;;;;;;;;;;;;5090629;28;19974;-72
2024/02/25 08:19:31;;;;;;;;;;;;;;;;;;5088826;28;20015;-73
2024/02/25 08:21:58;;;;;;;;;;;;;;;;;;5091271;28;20027;-73
2024/02/25 08:24:26;;;;;;;;;;;;;;;;;;5089716;28;19957;-73
2024/02/25 08:26:53;;;;;;;;;;;;;;;;;;5090871;28;20321;-73
2024/02/25 08:29:20;;;;;;;;;;;;;;;;;;5077878;28;20446;-73
2024/02/25 08:31:49;;;;;;;;;;;;;;;;;;5087585;28;20023;-75
2024/02/25 08:34:16;;;;;;;;;;;;;;;;;;5087252;28;20382;-77
2024/02/25 08:36:42;;;;;;;;;;;;;;;;;;5079570;28;19948;-75
2024/02/25 08:39:10;;;;;;;;;;;;;;;;;;5084390;28;20032;-74
2024/02/25 08:41:37;;;;;;;;;;;;;;;;;;5089177;28;19928;-75
2024/02/25 08:44:04;;;;;;;;;;;;;;;;;;5087899;28;20009;-74
2024/02/25 08:46:31;;;;;;;;;;;;;;;;;;5089024;28;20015;-75
2024/02/25 08:48:57;;;;;;;;;;;;;;;;;;5090431;28;20512;-72
2024/02/25 08:51:24;;;;;;;;;;;;;;;;;;5088564;28;19927;-73
2024/02/25 08:53:52;;;;;;;;;;;;;;;;;;5091404;28;20035;-74
2024/02/25 08:56:19;;;;;;;;;;;;;;;;;;5092036;28;20023;-75
2024/02/25 08:58:46;;;;;;;;;;;;;;;;;;5085962;28;19932;-74
2024/02/25 09:01:13;;;;;;;;;;;;;;;;;;5091806;28;20020;-75
2024/02/25 09:03:40;;;;;;;;;;;;;;;;;;5087070;28;19974;-75
2024/02/25 09:06:07;;;;;;;;;;;;;;;;;;5090896;28;19928;-76
2024/02/25 09:08:35;;;;;;;;;;;;;;;;;;5085475;28;19939;-75
2024/02/25 09:11:02;;;;;;;;;;;;;;;;;;5088947;28;20366;-74
2024/02/25 09:13:29;;;;;;;;;;;;;;;;;;5076010;28;20393;-74
2024/02/25 09:15:56;;;;;;;;;;;;;;;;;;5089883;28;19982;-74
2024/02/25 09:18:23;;;;;;;;;;;;;;;;;;5090494;28;20349;-74
2024/02/25 09:20:50;;;;;;;;;;;;;;;;;;5086090;28;20007;-75
2024/02/25 09:23:17;;;;;;;;;;;;;;;;;;5089354;28;20030;-74
2024/02/25 09:25:44;;;;;;;;;;;;;;;;;;5089677;28;20366;-74
2024/02/25 09:28:18;;;;;;;;;;;;;;;;;;5089933;28;19927;-75
2024/02/25 09:30:45;;;;;;;;;;;;;;;;;;5089505;28;19928;-76
2024/02/25 09:33:12;;;;;;;;;;;;;;;;;;5089508;28;19981;-77
2024/02/25 09:35:39;;;;;;;;;;;;;;;;;;5087550;28;20037;-75
2024/02/25 09:38:06;;;;;;;;;;;;;;;;;;5093947;28;19928;-74
2024/02/25 09:40:33;;;;;;;;;;;;;;;;;;5089435;28;20021;-75
2024/02/25 09:43:00;;;;;;;;;;;;;;;;;;5089424;28;19974;-74
2024/02/25 09:45:27;;;;;;;;;;;;;;;;;;5088303;28;19928;-75
2024/02/25 09:47:54;;;;;;;;;;;;;;;;;;5092178;28;20304;-87
2024/02/25 09:50:21;;;;;;;;;;;;;;;;;;5092072;28;19924;-84
2024/02/25 09:52:49;;;;;;;;;;;;;;;;;;5092494;28;19932;-84
2024/02/25 09:55:16;;;;;;;;;;;;;;;;;;5094215;28;20042;-83
2024/02/25 09:57:43;;;;;;;;;;;;;;;;;;5099745;28;19928;-85
2024/02/25 10:00:10;;;;;;;;;;;;;;;;;;5097797;28;19932;-83
2024/02/25 10:02:37;;;;;;;;;;;;;;;;;;5099104;28;19953;-84
2024/02/25 10:05:04;;;;;;;;;;;;;;;;;;5095681;28;19971;-71
2024/02/25 10:07:32;;;;;;;;;;;;;;;;;;5098858;28;19959;-74
2024/02/25 10:09:59;;;;;;;;;;;;;;;;;;5097598;28;19928;-77
2024/02/25 10:12:26;;;;;;;;;;;;;;;;;;5091160;28;20014;-79
2024/02/25 10:15:02;;;;;;;;;;;;;;;;;;5096063;28;19928;-75
2024/02/25 10:17:33;;;;;;;;;;;;;;;;;;5096074;28;19928;-76
2024/02/25 10:20:01;;;;;;;;;;;;;;;;;;5096221;28;19932;-73
2024/02/25 10:22:29;;;;;;;;;;;;;;;;;;5093823;28;20004;-73
2024/02/25 10:24:56;;;;;;;;;;;;;;;;;;5094817;28;20457;-76
2024/02/25 10:27:25;;;;;;;;;;;;;;;;;;5095755;28;20059;-75
2024/02/25 10:29:51;;;;;;;;;;;;;;;;;;5094151;28;19924;-75
2024/02/25 10:32:18;;;;;;;;;;;;;;;;;;5095613;28;20379;-76
2024/02/25 10:34:45;;;;;;;;;;;;;;;;;;5090616;28;19935;-74
2024/02/25 10:37:12;;;;;;;;;;;;;;;;;;5095744;28;20038;-74
2024/02/25 10:39:40;;;;;;;;;;;;;;;;;;5098984;28;19928;-76
2024/02/25 10:42:07;;;;;;;;;;;;;;;;;;5092508;28;19927;-73
2024/02/25 10:44:34;;;;;;;;;;;;;;;;;;5097799;28;19933;-76
2024/02/25 10:47:01;;;;;;;;;;;;;;;;;;5100593;28;20317;-75
2024/02/25 10:49:28;;;;;;;;;;;;;;;;;;5098426;28;19934;-76
2024/02/25 10:51:55;;;;;;;;;;;;;;;;;;5097363;28;20064;-73
2024/02/25 10:54:22;;;;;;;;;;;;;;;;;;5092363;28;20288;-74
2024/02/25 10:56:49;;;;;;;;;;;;;;;;;;5099431;28;19967;-73
2024/02/25 10:59:16;;;;;;;;;;;;;;;;;;5098246;28;20026;-74
2024/02/25 11:01:44;;;;;;;;;;;;;;;;;;5101851;28;20008;-74
2024/02/25 11:04:11;;;;;;;;;;;;;;;;;;5100468;28;20555;-74
2024/02/25 11:06:39;;;;;;;;;;;;;;;;;;5105485;28;19927;-75
2024/02/25 11:09:06;;;;;;;;;;;;;;;;;;5089326;28;20711;-71
2024/02/25 11:11:33;;;;;;;;;;;;;;;;;;5098019;28;19975;-72
2024/02/25 11:14:00;;;;;;;;;;;;;;;;;;5096128;28;19932;-71
2024/02/25 11:16:27;;;;;;;;;;;;;;;;;;5091010;28;20429;-72
2024/02/25 11:18:54;;;;;;;;;;;;;;;;;;5089397;28;19958;-71
2024/02/25 11:21:21;;;;;;;;;;;;;;;;;;5097085;28;20035;-72
2024/02/25 11:23:49;;;;;;;;;;;;;;;;;;5096480;28;19977;-72
2024/02/25 11:26:15;;;;;;;;;;;;;;;;;;5092029;28;19928;-72
2024/02/25 11:28:42;;;;;;;;;;;;;;;;;;5089504;28;20001;-71
2024/02/25 11:31:09;;;;;;;;;;;;;;;;;;5091256;28;20634;-70
2024/02/25 11:33:43;;;;;;;;;;;;;;;;;;5096904;28;19934;-72
2024/02/25 11:36:10;;;;;;;;;;;;;;;;;;5097216;28;19989;-72
2024/02/25 11:38:37;;;;;;;;;;;;;;;;;;5088038;28;20029;-72
2024/02/25 11:41:04;;;;;;;;;;;;;;;;;;5094579;28;19928;-72
2024/02/25 11:43:32;;;;;;;;;;;;;;;;;;5099383;28;19968;-70
2024/02/25 11:45:59;;;;;;;;;;;;;;;;;;5094921;28;20535;-70
2024/02/25 11:48:30;;;;;;;;;;;;;;;;;;5089328;28;20382;-71
2024/02/25 11:50:57;;;;;;;;;;;;;;;;;;5090876;28;19928;-70
2024/02/25 11:53:24;;;;;;;;;;;;;;;;;;5087614;28;19938;-71
2024/02/25 11:55:51;;;;;;;;;;;;;;;;;;5086970;28;20023;-71
2024/02/25 11:58:19;;;;;;;;;;;;;;;;;;5086026;28;20020;-71
2024/02/25 12:00:46;;;;;;;;;;;;;;;;;;5089240;28;19928;-71
2024/02/25 12:03:13;;;;;;;;;;;;;;;;;;5088371;28;20038;-71
2024/02/25 12:05:40;;;;;;;;;;;;;;;;;;5089036;28;19985;-71
2024/02/25 12:08:07;;;;;;;;;;;;;;;;;;5089183;28;20424;-71
2024/02/25 12:10:35;;;;;;;;;;;;;;;;;;5091419;28;20015;-71
2024/02/25 12:13:03;;;;;;;;;;;;;;;;;;5090759;28;19971;-71
2024/02/25 12:15:31;;;;;;;;;;;;;;;;;;5093806;28;20375;-71
2024/02/25 12:18:00;;;;;;;;;;;;;;;;;;5090553;28;19928;-71
2024/02/25 12:20:27;;;;;;;;;;;;;;;;;;5081537;28;20361;-72
2024/02/25 12:22:54;;;;;;;;;;;;;;;;;;5087603;28;20034;-71
2024/02/25 12:25:21;;;;;;;;;;;;;;;;;;5095087;28;19932;-71
2024/02/25 12:27:49;;;;;;;;;;;;;;;;;;5097590;28;20007;-71
2024/02/25 12:30:16;;;;;;;;;;;;;;;;;;5092099;28;19928;-70
2024/02/25 12:32:43;;;;;;;;;;;;;;;;;;5095730;28;19928;-71
2024/02/25 12:35:11;;;;;;;;;;;;;;;;;;5103736;28;20469;-69
2024/02/25 12:37:37;;;;;;;;;;;;;;;;;;5093183;28;20409;-69
2024/02/25 12:40:05;;;;;;;;;;;;;;;;;;5091846;28;19978;-70
2024/02/25 12:42:32;;;;;;;;;;;;;;;;;;5091756;28;19934;-70
2024/02/25 12:45:00;;;;;;;;;;;;;;;;;;5091283;28;20009;-71
2024/02/25 12:47:26;;;;;;;;;;;;;;;;;;5095962;28;20012;-71
2024/02/25 12:49:53;;;;;;;;;;;;;;;;;;5083601;28;19944;-71
2024/02/25 12:52:20;;;;;;;;;;;;;;;;;;5078532;28;20023;-71
2024/02/25 12:54:47;;;;;;;;;;;;;;;;;;5079218;28;19928;-71
2024/02/25 12:57:14;;;;;;;;;;;;;;;;;;5082358;28;20031;-70
2024/02/25 12:59:41;;;;;;;;;;;;;;;;;;5076387;28;19928;-70
2024/02/25 13:02:09;;;;;;;;;;;;;;;;;;5087161;28;20031;-71
2024/02/25 13:04:35;;;;;;;;;;;;;;;;;;5085425;28;19947;-70
2024/02/25 13:07:03;;;;;;;;;;;;;;;;;;5088590;28;19928;-70
2024/02/25 13:09:30;;;;;;;;;;;;;;;;;;5089522;28;19932;-70
2024/02/25 13:12:00;;;;;;;;;;;;;;;;;;5086880;28;19928;-69
2024/02/25 13:14:27;;;;;;;;;;;;;;;;;;5082757;28;19928;-70
2024/02/25 13:16:54;;;;;;;;;;;;;;;;;;5093736;28;20442;-71
2024/02/25 13:19:21;;;;;;;;;;;;;;;;;;5079455;28;19955;-70
2024/02/25 13:21:48;;;;;;;;;;;;;;;;;;5080078;28;20393;-69
2024/02/25 13:24:15;;;;;;;;;;;;;;;;;;5074598;28;19928;-69
2024/02/25 13:26:44;;;;;;;;;;;;;;;;;;5077069;28;20468;-70
2024/02/25 13:29:11;;;;;;;;;;;;;;;;;;5094690;28;19927;-70
2024/02/25 13:31:38;;;;;;;;;;;;;;;;;;5084714;28;20011;-70
2024/02/25 13:34:05;;;;;;;;;;;;;;;;;;5093933;28;20377;-71
2024/02/25 13:36:36;;;;;;;;;;;;;;;;;;5094296;28;19932;-69
2024/02/25 13:39:03;;;;;;;;;;;;;;;;;;5094453;28;19976;-71
2024/02/25 13:41:30;;;;;;;;;;;;;;;;;;5101984;28;19932;-72
2024/02/25 13:43:57;;;;;;;;;;;;;;;;;;5097684;28;19934;-70
2024/02/25 13:46:24;;;;;;;;;;;;;;;;;;5094527;28;19947;-71
2024/02/25 13:48:51;;;;;;;;;;;;;;;;;;5089299;28;20456;-71
2024/02/25 13:51:20;;;;;;;;;;;;;;;;;;5094840;28;19927;-71
2024/02/25 13:53:47;;;;;;;;;;;;;;;;;;5095924;28;20018;-72
2024/02/25 13:56:14;;;;;;;;;;;;;;;;;;5088863;28;20018;-75
2024/02/25 13:58:41;;;;;;;;;;;;;;;;;;5094539;28;20372;-70
2024/02/25 14:01:11;;;;;;;;;;;;;;;;;;5090139;28;19946;-70
2024/02/25 14:03:38;;;;;;;;;;;;;;;;;;5096902;28;19927;-70
2024/02/25 14:06:05;;;;;;;;;;;;;;;;;;5095035;28;19963;-69
2024/02/25 14:08:32;;;;;;;;;;;;;;;;;;5088230;28;19928;-70
2024/02/25 14:11:00;;;;;;;;;;;;;;;;;;5086892;28;20675;-70
2024/02/25 14:13:27;;;;;;;;;;;;;;;;;;5081438;28;19935;-70
2024/02/25 14:15:55;;;;;;;;;;;;;;;;;;5083918;28;20477;-70
2024/02/25 14:18:22;;;;;;;;;;;;;;;;;;5081252;28;20018;-70
2024/02/25 14:20:51;;;;;;;;;;;;;;;;;;5084450;28;19928;-71
2024/02/25 14:23:18;;;;;;;;;;;;;;;;;;5082809;28;19963;-71
2024/02/25 14:25:45;;;;;;;;;;;;;;;;;;5085952;28;19934;-72
2024/02/25 14:28:12;;;;;;;;;;;;;;;;;;5086564;28;20014;-71
2024/02/25 14:30:40;;;;;;;;;;;;;;;;;;5085609;28;20295;-70
2024/02/25 14:33:07;;;;;;;;;;;;;;;;;;5085189;28;20026;-70
2024/02/25 14:35:35;;;;;;;;;;;;;;;;;;5086488;28;20387;-69
2024/02/25 14:38:02;;;;;;;;;;;;;;;;;;5096537;28;20030;-70
2024/02/25 14:40:29;;;;;;;;;;;;;;;;;;5086880;28;20427;-70
2024/02/25 14:42:56;;;;;;;;;;;;;;;;;;5086648;28;20015;-70
2024/02/25 14:45:23;;;;;;;;;;;;;;;;;;5087954;28;20361;-70
2024/02/25 14:47:50;;;;;;;;;;;;;;;;;;5087773;28;20280;-69
2024/02/25 14:50:17;;;;;;;;;;;;;;;;;;5093116;28;19927;-69
2024/02/25 14:52:44;;;;;;;;;;;;;;;;;;5089138;28;20302;-69
2024/02/25 14:55:11;;;;;;;;;;;;;;;;;;5088773;28;20043;-69
2024/02/25 14:57:39;;;;;;;;;;;;;;;;;;5086036;28;20398;-69
2024/02/25 15:00:11;;;;;;;;;;;;;;;;;;5088623;28;19935;-69
2024/02/25 15:02:38;;;;;;;;;;;;;;;;;;5078202;28;19928;-69
2024/02/25 15:05:05;;;;;;;;;;;;;;;;;;5088196;28;19954;-69
2024/02/25 15:07:32;;;;;;;;;;;;;;;;;;5086472;28;19986;-69
2024/02/25 15:09:59;;;;;;;;;;;;;;;;;;5085617;28;20031;-68
2024/02/25 15:12:27;;;;;;;;;;;;;;;;;;5085237;28;19932;-68
2024/02/25 15:14:55;;;;;;;;;;;;;;;;;;5091493;28;20322;-68
2024/02/25 15:17:22;;;;;;;;;;;;;;;;;;5088437;28;19973;-74
2024/02/25 15:19:50;;;;;;;;;;;;;;;;;;5086671;28;19928;-71
2024/02/25 15:22:18;;;;;;;;;;;;;;;;;;5087361;28;19935;-75
2024/02/25 15:24:45;;;;;;;;;;;;;;;;;;5086288;28;19928;-73
2024/02/25 15:27:13;;;;;;;;;;;;;;;;;;5090283;28;19928;-72
2024/02/25 15:29:40;;;;;;;;;;;;;;;;;;5082751;28;20053;-72
2024/02/25 15:32:07;;;;;;;;;;;;;;;;;;5087830;28;19934;-73
2024/02/25 15:34:34;;;;;;;;;;;;;;;;;;5091299;28;20411;-68
2024/02/25 15:37:03;;;;;;;;;;;;;;;;;;5093079;28;19927;-70
2024/02/25 15:39:30;;;;;;;;;;;;;;;;;;5099762;28;20444;-68
2024/02/25 15:41:59;;;;;;;;;;;;;;;;;;5099033;28;19928;-67
2024/02/25 15:44:26;;;;;;;;;;;;;;;;;;5091464;28;20264;-68
2024/02/25 15:46:53;;;;;;;;;;;;;;;;;;5080969;28;19974;-69
2024/02/25 15:49:20;;;;;;;;;;;;;;;;;;5088378;28;20673;-69
2024/02/25 15:51:47;;;;;;;;;;;;;;;;;;5089112;28;19989;-68
2024/02/25 15:54:16;;;;;;;;;;;;;;;;;;5089663;28;19971;-70
2024/02/25 15:56:43;;;;;;;;;;;;;;;;;;5084159;28;20391;-69
2024/02/25 15:59:10;;;;;;;;;;;;;;;;;;5088578;28;19968;-70
2024/02/25 16:01:37;;;;;;;;;;;;;;;;;;5088396;28;19928;-69
2024/02/25 16:04:05;;;;;;;;;;;;;;;;;;5087678;28;19935;-69
2024/02/25 16:06:32;;;;;;;;;;;;;;;;;;5089847;28;20354;-69
2024/02/25 16:08:59;;;;;;;;;;;;;;;;;;5081373;28;20015;-69
2024/02/25 16:11:26;;;;;;;;;;;;;;;;;;5089898;28;19934;-69
2024/02/25 16:13:53;;;;;;;;;;;;;;;;;;5088215;28;20038;-68
2024/02/25 16:16:20;;;;;;;;;;;;;;;;;;5089344;28;20011;-69
2024/02/25 16:18:48;;;;;;;;;;;;;;;;;;5090293;28;20010;-69
2024/02/25 16:21:15;;;;;;;;;;;;;;;;;;5085093;28;20294;-69
2024/02/25 16:23:43;;;;;;;;;;;;;;;;;;5087111;28;20049;-69
2024/02/25 16:26:10;;;;;;;;;;;;;;;;;;5087091;28;19932;-69
2024/02/25 16:28:37;;;;;;;;;;;;;;;;;;5085070;28;19935;-70
2024/02/25 16:31:05;;;;;;;;;;;;;;;;;;5086037;28;19928;-69
2024/02/25 16:33:32;;;;;;;;;;;;;;;;;;5084388;28;20062;-69
2024/02/25 16:35:59;;;;;;;;;;;;;;;;;;5082262;28;20557;-69
2024/02/25 16:38:26;;;;;;;;;;;;;;;;;;5083255;28;19924;-70
2024/02/25 16:40:56;;;;;;;;;;;;;;;;;;5081162;28;19928;-68
2024/02/25 16:43:23;;;;;;;;;;;;;;;;;;5083490;28;20035;-69
2024/02/25 16:45:50;;;;;;;;;;;;;;;;;;5083599;28;20067;-70